Terminal Aerodrome Forecast
Issued by NWS

Home | Current Version | Previous Version | Text Only | Print | Product List | Glossary On
Versions: 1 2 3 4 5 6 7 8 9 10 11 12 13 14 15 16 17 18 19 20 21 22
000
FTUS45 KFGZ 282300
TAFGCN
TAF
KGCN 282330Z 0100/0124 22015G26KT P6SM SCT015 BKN050 OVC060
      TEMPO 0100/0102 5SM -SHRASN BR BKN008
     FM010200 22012KT P6SM VCSH SCT020 SCT035 BKN060
      TEMPO 0102/0106 2SM -SHSN BR OVC015
     FM010600 22014KT P6SM SCT020 BKN035
     FM010800 20007KT 5SM BR SCT008 OVC025
     FM011500 21007KT 5SM -SHRASN BKN008 OVC012
     FM011800 20010KT 4SM -SHRA BR SCT004 OVC008=

USA.gov is the U.S. government's official web portal to all federal, state and local government web resources and services.